createdAt,value
2018-02-18T00:00:29.308Z,22.3
2018-02-18T00:01:34.504Z,22.3
2018-02-18T00:02:39.962Z,22.3
2018-02-18T00:03:45.686Z,22.3
2018-02-18T00:04:51.181Z,22.3
2018-02-18T00:05:56.368Z,22.3
2018-02-18T00:07:01.524Z,22.3
2018-02-18T00:08:06.140Z,22.3
2018-02-18T00:09:11.623Z,22.3
2018-02-18T00:10:16.764Z,22.3
2018-02-18T00:11:21.944Z,22.3
2018-02-18T00:12:27.429Z,22.3
2018-02-18T00:13:32.660Z,22.3
2018-02-18T00:14:38.108Z,22.3
2018-02-18T00:15:43.946Z,22.3
2018-02-18T00:16:49.407Z,22.3
2018-02-18T00:17:54.593Z,22.3
2018-02-18T00:19:00.123Z,22.3
2018-02-18T00:20:05.310Z,22.3
2018-02-18T00:21:10.506Z,22.3
2018-02-18T00:22:16.424Z,22.3
2018-02-18T00:23:21.892Z,22.3
2018-02-18T00:24:27.456Z,22.3
2018-02-18T00:25:32.943Z,22.3
2018-02-18T00:26:38.409Z,22.3
2018-02-18T00:27:44.217Z,22.3
2018-02-18T00:28:49.692Z,22.3
2018-02-18T00:29:55.168Z,22.3
2018-02-18T00:31:00.614Z,22.3
2018-02-18T00:32:06.094Z,22.3
2018-02-18T00:33:11.572Z,22.3
2018-02-18T00:34:17.048Z,22.3
2018-02-18T00:35:22.531Z,22.3
2018-02-18T00:36:28.299Z,22.3
2018-02-18T00:37:33.516Z,22.3
2018-02-18T00:38:38.983Z,22.3
2018-02-18T00:39:44.556Z,22.3
2018-02-18T00:40:49.737Z,22.3
2018-02-18T00:41:55.210Z,22.3
2018-02-18T00:43:00.836Z,22.3
2018-02-18T00:44:06.316Z,22.3
2018-02-18T00:45:11.507Z,22.3
2018-02-18T00:46:16.982Z,22.3
2018-02-18T00:47:22.461Z,22.3
2018-02-18T00:48:28.210Z,22.3
2018-02-18T00:49:33.682Z,22.3
2018-02-18T00:50:39.186Z,22.3
2018-02-18T00:51:44.679Z,22.3
2018-02-18T00:52:48.448Z,22.3
2018-02-18T00:53:53.932Z,22.3
2018-02-18T00:54:59.723Z,22.3
2018-02-18T00:56:04.891Z,22.3
2018-02-18T00:57:09.816Z,22.3
2018-02-18T00:58:15.251Z,22.3
2018-02-18T00:59:20.796Z,22.3
2018-02-18T01:00:26.436Z,22.3
2018-02-18T01:01:31.924Z,22.3
2018-02-18T01:02:37.416Z,22.3
2018-02-18T01:03:43.367Z,22.3
2018-02-18T01:04:48.562Z,22.3
2018-02-18T01:05:53.738Z,22.3
2018-02-18T01:06:59.456Z,22.3
2018-02-18T01:08:04.087Z,22.3
2018-02-18T01:09:09.552Z,22.3
2018-02-18T01:10:15.170Z,22.3
2018-02-18T01:11:20.076Z,22.3
2018-02-18T01:12:26.102Z,22.3
2018-02-18T01:13:31.588Z,22.3
2018-02-18T01:14:37.058Z,22.3
2018-02-18T01:15:42.893Z,22.3
2018-02-18T01:16:47.520Z,22.3
2018-02-18T01:17:52.996Z,22.3
2018-02-18T01:18:58.576Z,22.3
2018-02-18T01:20:04.052Z,22.3
2018-02-18T01:21:09.252Z,22.3
2018-02-18T01:22:15.031Z,22.3
2018-02-18T01:23:19.677Z,22.3
2018-02-18T01:24:25.292Z,22.3
2018-02-18T01:25:30.805Z,22.3
2018-02-18T01:26:36.278Z,22.3
2018-02-18T01:27:41.706Z,22.3
2018-02-18T01:28:47.224Z,22.3
2018-02-18T01:29:52.399Z,22.3
2018-02-18T01:30:57.947Z,22.3
2018-02-18T01:32:02.838Z,22.3
2018-02-18T01:33:08.016Z,22.3
2018-02-18T01:34:13.926Z,22.3
2018-02-18T01:35:19.106Z,22.3
2018-02-18T01:36:24.012Z,22.3
2018-02-18T01:37:44.479Z,22.3
2018-02-18T01:38:49.966Z,22.3
2018-02-18T01:39:55.926Z,22.3
2018-02-18T01:41:01.399Z,22.3
2018-02-18T01:42:06.578Z,22.3
2018-02-18T01:43:12.019Z,22.3
2018-02-18T01:44:17.476Z,22.3
2018-02-18T01:45:22.959Z,22.3
2018-02-18T01:46:28.889Z,22.3
2018-02-18T01:47:34.071Z,22.3
2018-02-18T01:48:39.796Z,22.3
2018-02-18T01:49:45.270Z,22.3
2018-02-18T01:50:50.741Z,22.3
2018-02-18T01:51:56.420Z,22.3
2018-02-18T01:53:01.591Z,22.3
2018-02-18T01:54:06.488Z,22.3
2018-02-18T01:55:11.854Z,22.3
2018-02-18T01:56:17.329Z,22.3
2018-02-18T01:57:22.512Z,22.3
2018-02-18T01:58:42.578Z,22.3
2018-02-18T01:59:47.489Z,22.3
2018-02-18T02:00:53.258Z,22.3
2018-02-18T02:01:58.456Z,22.3
2018-02-18T02:03:03.081Z,22.3
2018-02-18T02:04:08.330Z,22.3
2018-02-18T02:05:13.252Z,22.3
2018-02-18T02:06:18.438Z,22.3
2018-02-18T02:07:23.863Z,22.3
2018-02-18T02:08:29.332Z,22.3
2018-02-18T02:09:35.306Z,22.3
2018-02-18T02:10:40.491Z,22.3
2018-02-18T02:11:45.963Z,22.3
2018-02-18T02:12:51.523Z,22.3
2018-02-18T02:13:57.026Z,22.3
2018-02-18T02:15:02.539Z,22.3
2018-02-18T02:16:07.699Z,22.3
2018-02-18T02:17:13.156Z,22.3
2018-02-18T02:18:17.772Z,22.3
2018-02-18T02:19:23.254Z,22.3
2018-02-18T02:20:28.720Z,22.3
2018-02-18T02:21:34.433Z,22.3
2018-02-18T02:22:40.103Z,22.3
2018-02-18T02:23:45.281Z,22.3
2018-02-18T02:24:51.039Z,22.3
2018-02-18T02:25:56.228Z,22.3
2018-02-18T02:27:00.850Z,22.3
2018-02-18T02:28:06.847Z,22.3
2018-02-18T02:29:12.030Z,22.3
2018-02-18T02:30:17.493Z,22.3
2018-02-18T02:31:23.308Z,22.3
2018-02-18T02:32:28.482Z,22.3
2018-02-18T02:33:34.254Z,22.3
2018-02-18T02:34:39.457Z,22.3
2018-02-18T02:35:44.646Z,22.3
2018-02-18T02:36:50.357Z,22.3
2018-02-18T02:37:55.835Z,22.3
2018-02-18T02:39:01.015Z,22.3
2018-02-18T02:40:06.163Z,22.3
2018-02-18T02:41:11.079Z,22.3
2018-02-18T02:42:16.550Z,22.3
2018-02-18T02:43:22.411Z,22.3
2018-02-18T02:44:27.881Z,22.3
2018-02-18T02:45:33.970Z,22.3
2018-02-18T02:46:39.474Z,22.3
2018-02-18T02:47:44.364Z,22.3
2018-02-18T02:48:49.560Z,22.3
2018-02-18T02:49:55.017Z,22.3
2018-02-18T02:51:00.494Z,22.3
2018-02-18T02:52:06.358Z,22.3
2018-02-18T02:53:11.857Z,22.3
2018-02-18T02:54:17.047Z,22.3
2018-02-18T02:55:22.864Z,22.3
2018-02-18T02:56:28.353Z,22.3
2018-02-18T02:57:34.063Z,22.3
2018-02-18T02:58:39.246Z,22.3
2018-02-18T02:59:44.721Z,22.3
2018-02-18T03:00:50.178Z,22.3
2018-02-18T03:01:55.638Z,22.3
2018-02-18T03:03:00.264Z,22.3
2018-02-18T03:04:05.782Z,22.3
2018-02-18T03:05:11.304Z,22.3
2018-02-18T03:06:16.532Z,22.3
2018-02-18T03:07:22.074Z,22.3
2018-02-18T03:08:27.258Z,22.3
2018-02-18T03:09:32.956Z,22.3
2018-02-18T03:10:38.142Z,22.3
2018-02-18T03:11:43.609Z,22.3
2018-02-18T03:12:49.324Z,22.3
2018-02-18T03:13:54.795Z,22.3
2018-02-18T03:15:00.286Z,22.3
2018-02-18T03:16:06.119Z,22.3
2018-02-18T03:17:11.291Z,22.3
2018-02-18T03:18:16.786Z,22.3
2018-02-18T03:19:22.535Z,22.3
2018-02-18T03:20:27.724Z,22.3
2018-02-18T03:21:33.445Z,22.3
2018-02-18T03:22:38.921Z,22.3
2018-02-18T03:23:44.405Z,22.3
2018-02-18T03:24:49.681Z,22.3
2018-02-18T03:25:55.153Z,22.3
2018-02-18T03:27:00.065Z,22.3
2018-02-18T03:28:05.786Z,22.3
2018-02-18T03:29:10.680Z,22.3
2018-02-18T03:30:16.142Z,22.3
2018-02-18T03:31:21.593Z,22.3
2018-02-18T03:32:26.775Z,22.3
2018-02-18T03:33:32.646Z,22.3
2018-02-18T03:34:37.833Z,22.3
2018-02-18T03:35:43.292Z,22.3
2018-02-18T03:36:48.743Z,22.3
2018-02-18T03:37:53.920Z,22.3
2018-02-18T03:38:59.402Z,22.3
2018-02-18T03:40:05.139Z,22.3
2018-02-18T03:41:09.767Z,22.3
2018-02-18T03:42:14.957Z,22.3
2018-02-18T03:43:20.677Z,22.3
2018-02-18T03:44:25.569Z,22.3
2018-02-18T03:45:30.777Z,22.3
2018-02-18T03:46:36.236Z,22.3
2018-02-18T03:47:41.401Z,22.3
2018-02-18T03:48:47.849Z,22.3
2018-02-18T03:49:53.310Z,22.3
2018-02-18T03:50:58.557Z,22.3
2018-02-18T03:52:03.997Z,22.3
2018-02-18T03:53:09.185Z,22.3
2018-02-18T03:54:14.674Z,22.3
2018-02-18T03:55:19.826Z,22.3
2018-02-18T03:56:25.307Z,22.3
2018-02-18T03:57:31.021Z,22.3
2018-02-18T03:58:36.496Z,22.3
2018-02-18T03:59:41.968Z,22.3
2018-02-18T04:00:47.784Z,22.3
2018-02-18T04:01:52.685Z,22.3
2018-02-18T04:02:57.888Z,22.3
2018-02-18T04:04:03.353Z,22.3
2018-02-18T04:05:08.858Z,22.3
2018-02-18T04:06:14.316Z,22.3
2018-02-18T04:07:19.759Z,22.3
2018-02-18T04:08:25.213Z,22.3
2018-02-18T04:09:30.921Z,22.3
2018-02-18T04:10:36.117Z,22.3
2018-02-18T04:11:41.286Z,22.3
2018-02-18T04:12:47.020Z,22.3
2018-02-18T04:13:52.499Z,22.3
2018-02-18T04:14:57.663Z,22.3
2018-02-18T04:16:03.111Z,22.3
2018-02-18T04:17:08.306Z,22.3
2018-02-18T04:18:13.502Z,22.3
2018-02-18T04:19:18.654Z,22.3
2018-02-18T04:20:24.117Z,22.3
2018-02-18T04:21:29.865Z,22.3
2018-02-18T04:22:35.343Z,22.3
2018-02-18T04:23:40.810Z,22.3
2018-02-18T04:24:46.792Z,22.3
2018-02-18T04:25:52.316Z,22.3
2018-02-18T04:26:57.794Z,22.3
2018-02-18T04:28:03.192Z,22.3
2018-02-18T04:29:08.092Z,22.3
2018-02-18T04:30:13.550Z,22.3
2018-02-18T04:31:18.940Z,22.3
2018-02-18T04:32:24.410Z,22.3
2018-02-18T04:33:30.234Z,22.2
2018-02-18T04:34:35.689Z,22.3
2018-02-18T04:35:41.162Z,22.2
2018-02-18T04:36:47.136Z,22.3
2018-02-18T04:37:52.308Z,22.2
2018-02-18T04:38:57.766Z,22.3
2018-02-18T04:40:03.211Z,22.3
2018-02-18T04:41:08.666Z,22.3
2018-02-18T04:42:14.132Z,22.3
2018-02-18T04:43:19.814Z,22.3
2018-02-18T04:44:25.278Z,22.3
2018-02-18T04:45:30.639Z,22.3
2018-02-18T04:46:35.809Z,22.3
2018-02-18T04:47:41.287Z,22.2
2018-02-18T04:48:46.910Z,22.3
2018-02-18T04:49:52.378Z,22.3
2018-02-18T04:50:57.853Z,22.2
2018-02-18T04:52:03.311Z,22.3
2018-02-18T04:53:08.478Z,22.3
2018-02-18T04:54:13.687Z,22.3
2018-02-18T04:55:19.137Z,22.3
2018-02-18T04:56:24.320Z,22.2
2018-02-18T04:57:30.132Z,22.3
2018-02-18T04:58:35.317Z,22.3
2018-02-18T04:59:40.783Z,22.3
2018-02-18T05:00:46.306Z,22.3
2018-02-18T05:01:51.208Z,22.3
2018-02-18T05:02:56.405Z,22.3
2018-02-18T05:04:01.699Z,22.2
2018-02-18T05:05:07.189Z,22.3
2018-02-18T05:06:12.680Z,22.2
2018-02-18T05:07:18.315Z,22.2
2018-02-18T05:08:23.503Z,22.2
2018-02-18T05:09:29.433Z,22.2
2018-02-18T05:10:34.614Z,22.2
2018-02-18T05:11:39.781Z,22.2
2018-02-18T05:12:45.416Z,22.2
2018-02-18T05:13:50.897Z,22.2
2018-02-18T05:14:56.379Z,22.2
2018-02-18T05:16:02.097Z,22.2
2018-02-18T05:17:07.912Z,22.2
2018-02-18T05:18:13.368Z,22.2
2018-02-18T05:19:18.787Z,22.2
2018-02-18T05:20:24.268Z,22.3
2018-02-18T05:21:30.107Z,22.3
2018-02-18T05:22:35.300Z,22.2
2018-02-18T05:23:40.500Z,22.3
2018-02-18T05:24:46.324Z,22.3
2018-02-18T05:25:51.811Z,22.2
2018-02-18T05:26:57.276Z,22.2
2018-02-18T05:28:02.867Z,22.3
2018-02-18T05:29:08.063Z,22.3
2018-02-18T05:30:13.240Z,22.2
2018-02-18T05:31:18.428Z,22.3
2018-02-18T05:32:23.903Z,22.3
2018-02-18T05:33:29.617Z,22.2
2018-02-18T05:34:35.080Z,22.2
2018-02-18T05:35:40.560Z,22.3
2018-02-18T05:36:46.384Z,22.3
2018-02-18T05:37:51.563Z,22.3
2018-02-18T05:38:57.036Z,22.3
2018-02-18T05:40:02.906Z,22.3
2018-02-18T05:41:07.830Z,22.3
2018-02-18T05:42:13.328Z,22.3
2018-02-18T05:43:18.814Z,22.2
2018-02-18T05:44:24.285Z,22.3
2018-02-18T05:45:28.873Z,22.3
2018-02-18T05:46:34.342Z,22.2
2018-02-18T05:47:39.787Z,22.2
2018-02-18T05:48:45.214Z,22.2
2018-02-18T05:49:50.399Z,22.3
2018-02-18T05:50:55.879Z,22.2
2018-02-18T05:52:01.366Z,22.2
2018-02-18T05:53:06.241Z,22.2
2018-02-18T05:54:11.403Z,22.2
2018-02-18T05:55:16.821Z,22.2
2018-02-18T05:56:22.277Z,22.2
2018-02-18T05:57:28.447Z,22.2
2018-02-18T05:58:33.921Z,22.2
2018-02-18T05:59:39.401Z,22.2
2018-02-18T06:00:45.125Z,22.2
2018-02-18T06:01:50.310Z,22.2
2018-02-18T06:02:55.518Z,22.2
2018-02-18T06:04:01.059Z,22.2
2018-02-18T06:05:06.254Z,22.3
2018-02-18T06:06:11.708Z,22.2
2018-02-18T06:07:17.456Z,22.2
2018-02-18T06:08:22.925Z,22.2
2018-02-18T06:09:28.484Z,22.2
2018-02-18T06:10:33.678Z,22.2
2018-02-18T06:11:39.148Z,22.2
2018-02-18T06:12:44.867Z,22.2
2018-02-18T06:13:49.790Z,22.2
2018-02-18T06:14:55.257Z,22.2
2018-02-18T06:16:01.072Z,22.2
2018-02-18T06:17:06.249Z,22.2
2018-02-18T06:18:11.455Z,22.2
2018-02-18T06:19:16.722Z,22.2
2018-02-18T06:20:22.195Z,22.2
2018-02-18T06:21:27.964Z,22.2
2018-02-18T06:22:33.166Z,22.2
2018-02-18T06:23:38.659Z,22.2
2018-02-18T06:24:44.400Z,22.2
2018-02-18T06:25:49.869Z,22.2
2018-02-18T06:26:55.324Z,22.2
2018-02-18T06:28:00.753Z,22.2
2018-02-18T06:29:05.695Z,22.2
2018-02-18T06:30:11.139Z,22.2
2018-02-18T06:31:16.596Z,22.2
2018-02-18T06:32:21.795Z,22.2
2018-02-18T06:33:27.584Z,22.2
2018-02-18T06:34:33.055Z,22.2
2018-02-18T06:35:38.251Z,22.2
2018-02-18T06:36:43.982Z,22.2
2018-02-18T06:37:49.439Z,22.2
2018-02-18T06:38:54.627Z,22.2
2018-02-18T06:39:59.481Z,22.2
2018-02-18T06:41:04.649Z,22.2
2018-02-18T06:42:09.856Z,22.2
2018-02-18T06:43:15.295Z,22.2
2018-02-18T06:44:20.492Z,22.2
2018-02-18T06:45:26.374Z,22.2
2018-02-18T06:46:31.856Z,22.2
2018-02-18T06:47:37.027Z,22.2
2018-02-18T06:48:42.945Z,22.2
2018-02-18T06:49:48.431Z,22.2
2018-02-18T06:50:53.616Z,22.2
2018-02-18T06:51:59.357Z,22.2
2018-02-18T06:53:04.837Z,22.2
2018-02-18T06:54:10.038Z,22.3
2018-02-18T06:55:15.282Z,22.2
2018-02-18T06:56:20.762Z,22.2
2018-02-18T06:57:26.666Z,22.2
2018-02-18T06:58:31.853Z,22.2
2018-02-18T06:59:36.768Z,22.3
2018-02-18T07:00:42.539Z,22.3
2018-02-18T07:01:47.716Z,22.2
2018-02-18T07:02:53.191Z,22.2
2018-02-18T07:03:59.098Z,22.2
2018-02-18T07:05:04.562Z,22.2
2018-02-18T07:06:09.475Z,22.2
2018-02-18T07:07:15.263Z,22.2
2018-02-18T07:08:20.157Z,22.2
2018-02-18T07:09:26.189Z,22.2
2018-02-18T07:10:31.681Z,22.2
2018-02-18T07:11:37.146Z,22.2
2018-02-18T07:12:42.854Z,22.2
2018-02-18T07:13:48.311Z,22.2
2018-02-18T07:14:53.802Z,22.2
2018-02-18T07:15:59.247Z,22.2
2018-02-18T07:17:03.882Z,22.2
2018-02-18T07:18:09.345Z,22.2
2018-02-18T07:19:15.315Z,22.2
2018-02-18T07:20:20.212Z,22.2
2018-02-18T07:21:26.153Z,22.3
2018-02-18T07:22:30.776Z,22.2
2018-02-18T07:23:35.954Z,22.2
2018-02-18T07:24:41.442Z,22.2
2018-02-18T07:25:46.895Z,22.2
2018-02-18T07:26:52.390Z,22.2
2018-02-18T07:27:57.820Z,22.2
2018-02-18T07:29:02.724Z,22.2
2018-02-18T07:30:08.189Z,22.2
2018-02-18T07:31:13.637Z,22.2
2018-02-18T07:32:18.526Z,22.2
2018-02-18T07:34:44.613Z,22.2
2018-02-18T07:35:49.784Z,22.2
2018-02-18T07:36:55.670Z,22.2
2018-02-18T07:38:01.149Z,22.2
2018-02-18T07:39:06.344Z,22.2
2018-02-18T07:40:12.086Z,22.2
2018-02-18T07:41:17.285Z,22.3
2018-02-18T07:42:22.786Z,22.3
2018-02-18T07:43:43.302Z,22.3
2018-02-18T07:44:48.788Z,22.3
2018-02-18T07:45:54.524Z,22.3
2018-02-18T07:46:59.987Z,22.3
2018-02-18T07:48:05.183Z,22.3
2018-02-18T07:49:10.052Z,22.3
2018-02-18T07:50:15.513Z,22.3
2018-02-18T07:51:20.709Z,22.3
2018-02-18T07:52:26.648Z,22.3
2018-02-18T07:53:31.839Z,22.3
2018-02-18T07:54:37.084Z,22.3
2018-02-18T07:55:42.249Z,22.3
2018-02-18T07:56:47.431Z,22.3
2018-02-18T07:57:53.347Z,22.3
2018-02-18T07:58:58.290Z,22.3
2018-02-18T08:00:03.469Z,22.3
2018-02-18T08:01:08.902Z,22.3
2018-02-18T08:02:13.819Z,22.3
2018-02-18T08:03:18.989Z,22.3
2018-02-18T08:04:24.980Z,22.3
2018-02-18T08:05:30.471Z,22.3
2018-02-18T08:06:36.082Z,22.3
2018-02-18T08:07:41.361Z,22.3
2018-02-18T08:08:46.523Z,22.3
2018-02-18T08:09:51.691Z,22.3
2018-02-18T08:10:57.163Z,22.4
2018-02-18T08:12:02.353Z,22.4
2018-02-18T08:13:08.101Z,22.4
2018-02-18T08:14:13.561Z,22.4
2018-02-18T08:15:18.744Z,22.4
2018-02-18T08:16:23.936Z,22.3
2018-02-18T08:17:29.440Z,22.3
2018-02-18T08:18:35.207Z,22.3
2018-02-18T08:19:40.111Z,22.3
2018-02-18T08:20:45.317Z,22.3
2018-02-18T08:21:50.564Z,22.3
2018-02-18T08:22:55.762Z,22.3
2018-02-18T08:24:00.941Z,22.3
2018-02-18T08:25:06.490Z,22.3
2018-02-18T08:26:11.960Z,22.3
2018-02-18T08:27:17.412Z,22.3
2018-02-18T08:28:23.177Z,22.3
2018-02-18T08:29:28.076Z,22.3
2018-02-18T08:30:32.977Z,22.3
2018-02-18T08:31:38.163Z,22.3
2018-02-18T08:32:43.674Z,22.3
2018-02-18T08:33:49.442Z,22.3
2018-02-18T08:34:54.918Z,22.3
2018-02-18T08:36:00.380Z,22.3
2018-02-18T08:37:05.539Z,22.3
2018-02-18T08:38:11.086Z,22.3
2018-02-18T08:39:16.441Z,22.3
2018-02-18T08:40:21.889Z,22.3
2018-02-18T08:41:27.355Z,22.3
2018-02-18T08:42:33.127Z,22.3
2018-02-18T08:43:38.630Z,22.3
2018-02-18T08:44:43.570Z,22.3
2018-02-18T08:45:49.009Z,22.3
2018-02-18T08:46:54.486Z,22.3
2018-02-18T08:47:59.950Z,22.3
2018-02-18T08:49:05.113Z,22.4
2018-02-18T08:50:10.569Z,22.4
2018-02-18T08:51:16.077Z,22.4
2018-02-18T08:52:21.366Z,22.4
2018-02-18T08:53:26.848Z,22.4
2018-02-18T08:54:32.743Z,22.4
2018-02-18T08:55:37.935Z,22.4
2018-02-18T08:56:42.860Z,22.4
2018-02-18T08:57:48.309Z,22.4
2018-02-18T08:58:53.473Z,22.4
2018-02-18T08:59:58.654Z,22.4
2018-02-18T09:01:03.730Z,22.4
2018-02-18T09:02:09.350Z,22.4
2018-02-18T09:03:14.813Z,22.4
2018-02-18T09:04:20.592Z,22.4
2018-02-18T09:05:26.050Z,22.4
2018-02-18T09:06:31.588Z,22.4
2018-02-18T09:07:37.043Z,22.4
2018-02-18T09:08:42.508Z,22.4
2018-02-18T09:09:48.224Z,22.4
2018-02-18T09:10:53.689Z,22.4
2018-02-18T09:11:58.856Z,22.4
2018-02-18T09:13:04.126Z,22.4
2018-02-18T09:14:09.102Z,22.4
2018-02-18T09:15:14.291Z,22.4
2018-02-18T09:16:19.716Z,22.4
2018-02-18T09:17:25.188Z,22.4
2018-02-18T09:18:31.123Z,22.4
2018-02-18T09:19:36.601Z,22.4
2018-02-18T09:20:41.780Z,22.4
2018-02-18T09:21:47.201Z,22.4
2018-02-18T09:22:52.699Z,22.4
2018-02-18T09:23:57.871Z,22.4
2018-02-18T09:25:03.417Z,22.4
2018-02-18T09:26:08.873Z,22.4
2018-02-18T09:27:14.037Z,22.4
2018-02-18T09:28:19.540Z,22.4
2018-02-18T09:29:25.003Z,22.4
2018-02-18T09:30:31.066Z,22.4
2018-02-18T09:31:36.257Z,22.4
2018-02-18T09:32:41.192Z,22.4
2018-02-18T09:33:47.194Z,22.4
2018-02-18T09:34:52.680Z,22.5
2018-02-18T09:35:57.861Z,22.5
2018-02-18T09:37:03.320Z,22.4
2018-02-18T09:38:08.509Z,22.5
2018-02-18T09:39:14.023Z,22.4
2018-02-18T09:40:19.868Z,22.5
2018-02-18T09:41:25.319Z,22.5
2018-02-18T09:42:31.340Z,22.5
2018-02-18T09:43:36.826Z,22.5
2018-02-18T09:44:42.017Z,22.5
2018-02-18T09:45:47.841Z,22.5
2018-02-18T09:46:53.297Z,22.5
2018-02-18T09:47:58.777Z,22.5
2018-02-18T09:49:04.178Z,22.5
2018-02-18T09:50:09.379Z,22.5
2018-02-18T09:51:14.033Z,22.5
2018-02-18T09:52:19.784Z,22.5
2018-02-18T09:53:25.275Z,22.5
2018-02-18T09:54:31.161Z,22.5
2018-02-18T09:55:36.623Z,22.5
2018-02-18T09:56:41.801Z,22.5
2018-02-18T09:57:47.734Z,22.5
2018-02-18T09:58:52.925Z,22.5
2018-02-18T09:59:58.127Z,22.5
2018-02-18T10:01:03.417Z,22.5
2018-02-18T10:02:08.890Z,22.5
2018-02-18T10:03:14.061Z,22.5
2018-02-18T10:04:19.207Z,22.5
2018-02-18T10:05:24.378Z,22.5
2018-02-18T10:06:30.344Z,22.5
2018-02-18T10:07:35.245Z,22.5
2018-02-18T10:08:40.712Z,22.5
2018-02-18T10:09:46.289Z,22.5
2018-02-18T10:10:51.768Z,22.5
2018-02-18T10:11:57.221Z,22.5
2018-02-18T10:13:02.739Z,22.5
2018-02-18T10:14:07.347Z,22.5
2018-02-18T10:15:12.815Z,22.5
2018-02-18T10:16:18.524Z,22.5
2018-02-18T10:17:23.995Z,22.5
2018-02-18T10:18:29.778Z,22.5
2018-02-18T10:19:35.244Z,22.5
2018-02-18T10:20:40.409Z,22.5
2018-02-18T10:21:46.377Z,22.5
2018-02-18T10:22:51.293Z,22.6
2018-02-18T10:23:56.763Z,22.6
2018-02-18T10:25:02.532Z,22.6
2018-02-18T10:26:07.172Z,22.6
2018-02-18T10:27:12.372Z,22.6
2018-02-18T10:28:18.093Z,22.6
2018-02-18T10:29:23.003Z,22.6
2018-02-18T10:30:28.675Z,22.6
2018-02-18T10:31:33.904Z,22.6
2018-02-18T10:32:39.380Z,22.6
2018-02-18T10:33:44.588Z,22.6
2018-02-18T10:34:49.827Z,22.6
2018-02-18T10:35:55.303Z,22.6
2018-02-18T10:37:01.024Z,22.6
2018-02-18T10:38:05.931Z,22.6
2018-02-18T10:39:11.404Z,22.6
2018-02-18T10:40:16.944Z,22.6
2018-02-18T10:41:22.407Z,22.6
2018-02-18T10:42:27.938Z,22.6
2018-02-18T10:43:33.125Z,22.6
2018-02-18T10:44:38.324Z,22.6
2018-02-18T10:45:44.249Z,22.6
2018-02-18T10:46:49.424Z,22.6
2018-02-18T10:47:54.612Z,22.6
2018-02-18T10:49:00.077Z,22.6
2018-02-18T10:50:05.258Z,22.6
2018-02-18T10:51:10.184Z,22.6
2018-02-18T10:52:16.298Z,22.6
2018-02-18T10:53:21.498Z,22.6
2018-02-18T10:54:27.301Z,22.6
2018-02-18T10:55:32.478Z,22.6
2018-02-18T10:56:37.395Z,22.6
2018-02-18T10:57:43.127Z,22.6
2018-02-18T10:58:48.302Z,22.6
2018-02-18T10:59:53.850Z,22.6
2018-02-18T11:00:59.323Z,22.6
2018-02-18T11:02:04.507Z,22.6
2018-02-18T11:03:09.430Z,22.6
2018-02-18T11:04:15.144Z,22.6
2018-02-18T11:05:19.479Z,22.6
2018-02-18T11:07:44.958Z,22.6
2018-02-18T11:08:50.448Z,22.6
2018-02-18T11:09:56.312Z,22.6
2018-02-18T11:11:01.503Z,22.6
2018-02-18T11:12:06.706Z,22.6
2018-02-18T11:13:11.572Z,22.6
2018-02-18T11:14:16.193Z,22.6
2018-02-18T11:15:21.117Z,22.7
2018-02-18T11:16:26.597Z,22.6
2018-02-18T11:17:32.077Z,22.6
2018-02-18T11:18:37.887Z,22.6
2018-02-18T11:19:43.372Z,22.6
2018-02-18T11:20:48.833Z,22.7
2018-02-18T11:21:54.549Z,22.7
2018-02-18T11:23:00.014Z,22.6
2018-02-18T11:24:05.191Z,22.7
2018-02-18T11:25:10.644Z,22.7
2018-02-18T11:26:15.838Z,22.7
2018-02-18T11:27:21.010Z,22.7
2018-02-18T11:28:26.485Z,22.7
2018-02-18T11:29:31.676Z,22.7
2018-02-18T11:30:36.990Z,22.7
2018-02-18T11:31:42.187Z,22.7
2018-02-18T11:32:47.375Z,22.7
2018-02-18T11:33:52.814Z,22.7
2018-02-18T11:34:57.988Z,22.7
2018-02-18T11:36:03.192Z,22.7
2018-02-18T11:37:08.638Z,22.7
2018-02-18T11:38:13.541Z,22.7
2018-02-18T11:39:18.725Z,22.7
2018-02-18T11:40:39.078Z,22.7
2018-02-18T11:41:44.544Z,22.7
2018-02-18T11:42:50.248Z,22.7
2018-02-18T11:43:55.723Z,22.7
2018-02-18T11:45:01.188Z,22.7
2018-02-18T11:46:06.339Z,22.7
2018-02-18T11:47:11.536Z,22.7
2018-02-18T11:48:17.000Z,22.7
2018-02-18T11:49:22.729Z,22.7
2018-02-18T11:50:27.934Z,22.7
2018-02-18T11:51:33.372Z,22.7
2018-02-18T11:52:38.559Z,22.7
2018-02-18T11:53:43.739Z,22.7
2018-02-18T11:54:48.894Z,22.7
2018-02-18T11:55:54.100Z,22.7
2018-02-18T11:56:59.297Z,22.7
2018-02-18T11:58:05.126Z,22.7
2018-02-18T11:59:10.321Z,22.7
2018-02-18T12:00:15.805Z,22.7
2018-02-18T12:01:21.640Z,22.7
2018-02-18T12:02:27.128Z,22.7
2018-02-18T12:03:33.004Z,22.7
2018-02-18T12:04:38.471Z,22.7
2018-02-18T12:05:43.954Z,22.7
2018-02-18T12:06:49.399Z,22.7
2018-02-18T12:07:54.910Z,22.7
2018-02-18T12:09:00.111Z,22.7
2018-02-18T12:10:05.887Z,22.7
2018-02-18T12:11:11.089Z,22.7
2018-02-18T12:12:16.289Z,22.7
2018-02-18T12:13:21.743Z,22.7
2018-02-18T12:14:26.965Z,22.7
2018-02-18T12:15:32.826Z,22.7
2018-02-18T12:16:38.017Z,22.7
2018-02-18T12:17:43.550Z,22.7
2018-02-18T12:18:49.427Z,22.7
2018-02-18T12:19:54.889Z,22.7
2018-02-18T12:21:00.070Z,22.7
2018-02-18T12:22:05.225Z,22.8
2018-02-18T12:23:10.435Z,22.8
2018-02-18T12:24:15.910Z,22.7
2018-02-18T12:25:20.878Z,22.8
2018-02-18T12:26:26.343Z,22.8
2018-02-18T12:27:31.714Z,22.7
2018-02-18T12:28:37.186Z,22.8
2018-02-18T12:29:42.658Z,22.8
2018-02-18T12:30:47.819Z,22.8
2018-02-18T12:31:53.015Z,22.8
2018-02-18T12:32:58.193Z,22.8
2018-02-18T12:34:03.907Z,22.8
2018-02-18T12:35:09.090Z,22.8
2018-02-18T12:36:14.279Z,22.8
2018-02-18T12:37:19.717Z,22.8
2018-02-18T12:38:25.188Z,22.8
2018-02-18T12:39:30.849Z,22.8
2018-02-18T12:40:36.019Z,22.7
2018-02-18T12:41:40.635Z,22.8
2018-02-18T12:42:46.614Z,22.8
2018-02-18T12:43:52.113Z,22.8
2018-02-18T12:44:57.307Z,22.8
2018-02-18T12:46:03.123Z,22.8
2018-02-18T12:47:08.311Z,22.8
2018-02-18T12:48:13.792Z,22.8
2018-02-18T12:49:19.321Z,22.8
2018-02-18T12:50:24.265Z,22.8
2018-02-18T12:51:29.725Z,22.8
2018-02-18T12:52:34.680Z,22.8
2018-02-18T12:53:39.571Z,22.8
2018-02-18T12:54:44.764Z,22.8
2018-02-18T12:55:49.687Z,22.8
2018-02-18T12:56:55.164Z,22.8
2018-02-18T12:58:00.886Z,22.8
2018-02-18T12:59:06.059Z,22.8
2018-02-18T13:00:10.955Z,22.8
2018-02-18T13:01:16.660Z,22.8
2018-02-18T13:02:22.152Z,22.8
2018-02-18T13:03:28.102Z,22.8
2018-02-18T13:04:33.316Z,22.8
2018-02-18T13:05:38.485Z,22.8
2018-02-18T13:06:44.412Z,22.8
2018-02-18T13:07:49.594Z,22.8
2018-02-18T13:08:54.496Z,22.8
2018-02-18T13:10:00.234Z,22.8
2018-02-18T13:11:04.319Z,22.8
2018-02-18T13:12:09.416Z,22.8
2018-02-18T13:13:15.201Z,22.8
2018-02-18T13:14:20.670Z,22.8
2018-02-18T13:15:26.860Z,22.8
2018-02-18T13:16:32.335Z,22.8
2018-02-18T13:17:37.581Z,22.8
2018-02-18T13:18:43.094Z,22.8
2018-02-18T13:19:48.574Z,22.8
2018-02-18T13:20:54.042Z,22.8
2018-02-18T13:21:59.662Z,22.8
2018-02-18T13:23:04.568Z,22.8
2018-02-18T13:24:09.771Z,22.8
2018-02-18T13:25:14.943Z,22.8
2018-02-18T13:26:19.567Z,22.8
2018-02-18T13:27:25.511Z,22.8
2018-02-18T13:28:30.983Z,22.8
2018-02-18T13:29:36.187Z,22.8
2018-02-18T13:30:41.835Z,22.8
2018-02-18T13:31:47.298Z,22.8
2018-02-18T13:32:52.759Z,22.8
2018-02-18T13:33:58.481Z,22.8
2018-02-18T13:35:03.408Z,22.8
2018-02-18T13:36:08.606Z,22.8
2018-02-18T13:37:14.031Z,22.8
2018-02-18T13:38:18.936Z,22.8
2018-02-18T13:40:44.765Z,22.8
2018-02-18T13:41:49.947Z,22.8
2018-02-18T13:42:55.621Z,22.8
2018-02-18T13:44:00.832Z,22.8
2018-02-18T13:45:05.478Z,22.8
2018-02-18T13:46:10.920Z,22.8
2018-02-18T13:47:16.374Z,22.8
2018-02-18T13:48:21.572Z,22.8
2018-02-18T13:49:42.061Z,22.8
2018-02-18T13:50:46.708Z,22.8
2018-02-18T13:51:52.198Z,22.8
2018-02-18T13:52:57.662Z,22.8
2018-02-18T13:54:02.852Z,22.8
2018-02-18T13:55:08.575Z,22.8
2018-02-18T13:56:14.035Z,22.8
2018-02-18T13:57:19.514Z,22.8
2018-02-18T13:58:39.638Z,22.8
2018-02-18T13:59:45.116Z,22.8
2018-02-18T14:00:50.844Z,22.8
2018-02-18T14:01:56.323Z,22.8
2018-02-18T14:03:01.530Z,22.9
2018-02-18T14:04:07.233Z,22.8
2018-02-18T14:05:12.720Z,22.9
2018-02-18T14:06:17.941Z,22.9
2018-02-18T14:07:23.471Z,22.8
2018-02-18T14:08:28.701Z,22.9
2018-02-18T14:09:34.245Z,22.8
2018-02-18T14:10:39.727Z,22.8
2018-02-18T14:11:45.196Z,22.8
2018-02-18T14:12:50.922Z,22.8
2018-02-18T14:13:56.120Z,22.8
2018-02-18T14:15:01.595Z,22.8
2018-02-18T14:16:06.745Z,22.8
2018-02-18T14:17:11.938Z,22.8
2018-02-18T14:18:17.128Z,22.8
2018-02-18T14:19:22.686Z,22.8
2018-02-18T14:20:27.394Z,22.8
2018-02-18T14:21:33.163Z,22.8
2018-02-18T14:22:38.375Z,22.8
2018-02-18T14:23:43.561Z,22.9
2018-02-18T14:24:49.009Z,22.9
2018-02-18T14:25:54.177Z,22.9
2018-02-18T14:26:59.071Z,22.9
2018-02-18T14:28:04.080Z,22.9
2018-02-18T14:29:09.268Z,22.9
2018-02-18T14:30:14.485Z,22.9
2018-02-18T14:31:20.203Z,22.9
2018-02-18T14:32:25.377Z,22.9
2018-02-18T14:33:30.800Z,22.9
2018-02-18T14:34:36.272Z,22.9
2018-02-18T14:35:41.742Z,22.9